sensor_id;sensor_type;location;lat;lon;timestamp;pressure;altitude;pressure_sealevel;temperature;humidity
31717;BME280;18301;51.076;17.046;2024-01-30T00:01:41;101775.03;;;3.99;70.37
31717;BME280;18301;51.076;17.046;2024-01-30T00:06:43;101770.06;;;3.83;70.85
31717;BME280;18301;51.076;17.046;2024-01-30T00:11:45;101768.56;;;3.73;71.73
31717;BME280;18301;51.076;17.046;2024-01-30T00:16:47;101766.97;;;3.63;71.32
31717;BME280;18301;51.076;17.046;2024-01-30T00:21:48;101774.38;;;3.52;71.95
31717;BME280;18301;51.076;17.046;2024-01-30T00:26:50;101775.53;;;3.38;72.19
31717;BME280;18301;51.076;17.046;2024-01-30T00:31:51;101775.06;;;3.21;72.25
31717;BME280;18301;51.076;17.046;2024-01-30T00:36:54;101784.06;;;3.14;72.93
31717;BME280;18301;51.076;17.046;2024-01-30T00:41:55;101785.22;;;3.02;72.93
31717;BME280;18301;51.076;17.046;2024-01-30T00:46:57;101779.31;;;2.86;73.62
31717;BME280;18301;51.076;17.046;2024-01-30T00:51:59;101770.59;;;2.78;73.46
31717;BME280;18301;51.076;17.046;2024-01-30T00:57:00;101776.91;;;2.72;73.87
31717;BME280;18301;51.076;17.046;2024-01-30T01:02:02;101779.59;;;2.71;74.40
31717;BME280;18301;51.076;17.046;2024-01-30T01:07:04;101785.19;;;2.59;74.91
31717;BME280;18301;51.076;17.046;2024-01-30T01:12:06;101772.81;;;2.54;75.24
31717;BME280;18301;51.076;17.046;2024-01-30T01:17:08;101781.78;;;2.50;75.45
31717;BME280;18301;51.076;17.046;2024-01-30T01:22:10;101779.91;;;2.56;74.76
31717;BME280;18301;51.076;17.046;2024-01-30T01:27:11;101778.19;;;2.51;74.88
31717;BME280;18301;51.076;17.046;2024-01-30T01:32:13;101776.34;;;2.55;75.01
31717;BME280;18301;51.076;17.046;2024-01-30T01:37:15;101772.91;;;2.48;75.05
31717;BME280;18301;51.076;17.046;2024-01-30T01:42:17;101772.16;;;2.42;75.13
31717;BME280;18301;51.076;17.046;2024-01-30T01:47:18;101767.81;;;2.38;75.31
31717;BME280;18301;51.076;17.046;2024-01-30T01:52:20;101778.38;;;2.42;75.67
31717;BME280;18301;51.076;17.046;2024-01-30T01:57:22;101771.28;;;2.41;75.19
31717;BME280;18301;51.076;17.046;2024-01-30T02:02:24;101771.47;;;2.32;75.45
31717;BME280;18301;51.076;17.046;2024-01-30T02:07:27;101763.56;;;2.26;75.66
31717;BME280;18301;51.076;17.046;2024-01-30T02:12:30;101760.09;;;2.21;76.09
31717;BME280;18301;51.076;17.046;2024-01-30T02:17:32;101765.47;;;2.18;76.23
31717;BME280;18301;51.076;17.046;2024-01-30T02:22:34;101756.44;;;2.28;76.26
31717;BME280;18301;51.076;17.046;2024-01-30T02:27:36;101755.47;;;2.32;76.33
31717;BME280;18301;51.076;17.046;2024-01-30T02:32:38;101749.97;;;2.41;76.69
31717;BME280;18301;51.076;17.046;2024-01-30T02:37:40;101746.28;;;2.48;76.36
31717;BME280;18301;51.076;17.046;2024-01-30T02:42:41;101760.53;;;2.47;76.73
31717;BME280;18301;51.076;17.046;2024-01-30T02:47:43;101756.94;;;2.48;76.44
31717;BME280;18301;51.076;17.046;2024-01-30T02:52:45;101755.13;;;2.50;76.29
31717;BME280;18301;51.076;17.046;2024-01-30T02:57:48;101757.69;;;2.55;76.39
31717;BME280;18301;51.076;17.046;2024-01-30T03:02:49;101754.09;;;2.59;76.98
31717;BME280;18301;51.076;17.046;2024-01-30T03:07:51;101747.81;;;2.62;76.73
31717;BME280;18301;51.076;17.046;2024-01-30T03:12:53;101754.91;;;2.63;77.04
31717;BME280;18301;51.076;17.046;2024-01-30T03:17:54;101752.38;;;2.55;77.04
31717;BME280;18301;51.076;17.046;2024-01-30T03:22:56;101753.28;;;2.56;76.91
31717;BME280;18301;51.076;17.046;2024-01-30T03:27:58;101755.06;;;2.53;76.80
31717;BME280;18301;51.076;17.046;2024-01-30T03:33:00;101752.28;;;2.60;76.81
31717;BME280;18301;51.076;17.046;2024-01-30T03:38:02;101734.50;;;2.62;76.91
31717;BME280;18301;51.076;17.046;2024-01-30T03:43:04;101734.56;;;2.59;77.06
31717;BME280;18301;51.076;17.046;2024-01-30T03:48:06;101732.84;;;2.54;76.79
31717;BME280;18301;51.076;17.046;2024-01-30T03:53:08;101735.69;;;2.45;76.85
31717;BME280;18301;51.076;17.046;2024-01-30T03:58:10;101726.09;;;2.35;76.90
31717;BME280;18301;51.076;17.046;2024-01-30T04:03:12;101730.63;;;2.30;76.85
31717;BME280;18301;51.076;17.046;2024-01-30T04:08:13;101732.41;;;2.31;77.84
31717;BME280;18301;51.076;17.046;2024-01-30T04:13:15;101729.69;;;2.34;77.20
31717;BME280;18301;51.076;17.046;2024-01-30T04:18:17;101740.25;;;2.39;77.16
31717;BME280;18301;51.076;17.046;2024-01-30T04:23:18;101742.16;;;2.30;77.54
31717;BME280;18301;51.076;17.046;2024-01-30T04:28:20;101730.81;;;2.21;77.71
31717;BME280;18301;51.076;17.046;2024-01-30T04:33:22;101729.13;;;2.15;77.08
31717;BME280;18301;51.076;17.046;2024-01-30T04:38:23;101736.28;;;2.12;78.12
31717;BME280;18301;51.076;17.046;2024-01-30T04:43:25;101740.84;;;2.06;77.63
31717;BME280;18301;51.076;17.046;2024-01-30T04:48:28;101736.44;;;2.02;77.75
31717;BME280;18301;51.076;17.046;2024-01-30T04:53:30;101739.91;;;2.07;78.21
31717;BME280;18301;51.076;17.046;2024-01-30T04:58:32;101746.22;;;2.02;77.73
31717;BME280;18301;51.076;17.046;2024-01-30T05:03:34;101742.47;;;2.12;78.35
31717;BME280;18301;51.076;17.046;2024-01-30T05:08:36;101747.81;;;2.14;77.84
31717;BME280;18301;51.076;17.046;2024-01-30T05:13:38;101736.94;;;2.24;78.42
31717;BME280;18301;51.076;17.046;2024-01-30T05:18:40;101747.53;;;2.27;77.86
31717;BME280;18301;51.076;17.046;2024-01-30T05:23:41;101743.22;;;2.22;77.84
31717;BME280;18301;51.076;17.046;2024-01-30T05:28:43;101749.53;;;2.16;78.13
31717;BME280;18301;51.076;17.046;2024-01-30T05:33:49;101744.38;;;2.05;78.09
31717;BME280;18301;51.076;17.046;2024-01-30T05:38:51;101754.16;;;2.06;77.72
31717;BME280;18301;51.076;17.046;2024-01-30T05:43:53;101747.09;;;2.02;78.28
31717;BME280;18301;51.076;17.046;2024-01-30T05:48:54;101750.56;;;2.07;78.31
31717;BME280;18301;51.076;17.046;2024-01-30T05:53:56;101753.13;;;2.12;78.26
31717;BME280;18301;51.076;17.046;2024-01-30T05:58:58;101750.41;;;2.17;78.20
31717;BME280;18301;51.076;17.046;2024-01-30T06:04:00;101748.41;;;2.31;78.56
31717;BME280;18301;51.076;17.046;2024-01-30T06:09:02;101750.72;;;2.49;77.35
31717;BME280;18301;51.076;17.046;2024-01-30T06:14:04;101754.28;;;2.48;78.25
31717;BME280;18301;51.076;17.046;2024-01-30T06:19:06;101757.50;;;2.66;77.39
31717;BME280;18301;51.076;17.046;2024-01-30T06:24:08;101753.00;;;2.68;77.34
31717;BME280;18301;51.076;17.046;2024-01-30T06:29:09;101751.13;;;2.73;77.15
31717;BME280;18301;51.076;17.046;2024-01-30T06:34:11;101754.59;;;2.78;77.06
31717;BME280;18301;51.076;17.046;2024-01-30T06:39:13;101745.44;;;2.91;76.85
31717;BME280;18301;51.076;17.046;2024-01-30T06:44:15;101750.56;;;3.00;76.38
31717;BME280;18301;51.076;17.046;2024-01-30T06:49:16;101755.16;;;2.94;76.76
31717;BME280;18301;51.076;17.046;2024-01-30T06:54:18;101757.84;;;2.92;76.36
31717;BME280;18301;51.076;17.046;2024-01-30T06:59:20;101753.69;;;2.79;76.60
31717;BME280;18301;51.076;17.046;2024-01-30T07:04:22;101760.69;;;2.83;76.92
31717;BME280;18301;51.076;17.046;2024-01-30T07:09:23;101762.56;;;2.80;76.76
31717;BME280;18301;51.076;17.046;2024-01-30T07:14:25;101753.69;;;2.79;77.22
31717;BME280;18301;51.076;17.046;2024-01-30T07:19:27;101748.09;;;2.93;77.49
31717;BME280;18301;51.076;17.046;2024-01-30T07:24:28;101759.25;;;3.12;76.67
31717;BME280;18301;51.076;17.046;2024-01-30T07:29:30;101756.88;;;3.38;76.69
31717;BME280;18301;51.076;17.046;2024-01-30T07:34:32;101752.00;;;3.57;75.96
31717;BME280;18301;51.076;17.046;2024-01-30T07:39:39;101756.94;;;3.74;75.75
31717;BME280;18301;51.076;17.046;2024-01-30T07:44:41;101753.91;;;3.89;74.97
31717;BME280;18301;51.076;17.046;2024-01-30T07:49:42;101765.97;;;4.06;74.05
31717;BME280;18301;51.076;17.046;2024-01-30T07:54:44;101758.50;;;4.19;73.52
31717;BME280;18301;51.076;17.046;2024-01-30T07:59:46;101764.53;;;4.28;73.33
31717;BME280;18301;51.076;17.046;2024-01-30T08:04:47;101758.94;;;4.36;72.86
31717;BME280;18301;51.076;17.046;2024-01-30T08:09:51;101763.88;;;4.53;72.82
31717;BME280;18301;51.076;17.046;2024-01-30T08:14:53;101766.13;;;4.68;73.10
31717;BME280;18301;51.076;17.046;2024-01-30T08:19:54;101759.16;;;4.94;72.26
31717;BME280;18301;51.076;17.046;2024-01-30T08:24:56;101751.97;;;5.25;72.25
31717;BME280;18301;51.076;17.046;2024-01-30T08:29:58;101754.34;;;5.64;71.26
31717;BME280;18301;51.076;17.046;2024-01-30T08:35:00;101741.47;;;5.75;70.17
31717;BME280;18301;51.076;17.046;2024-01-30T08:40:05;101749.44;;;6.07;69.14
31717;BME280;18301;51.076;17.046;2024-01-30T08:45:08;101743.69;;;6.17;67.54
31717;BME280;18301;51.076;17.046;2024-01-30T08:50:10;101747.31;;;6.16;68.88
31717;BME280;18301;51.076;17.046;2024-01-30T08:55:12;101737.72;;;6.36;67.23
31717;BME280;18301;51.076;17.046;2024-01-30T09:00:15;101746.91;;;6.54;68.13
31717;BME280;18301;51.076;17.046;2024-01-30T09:05:16;101741.69;;;6.49;64.39
31717;BME280;18301;51.076;17.046;2024-01-30T09:10:19;101740.72;;;6.77;65.34
31717;BME280;18301;51.076;17.046;2024-01-30T09:15:22;101741.09;;;6.91;64.83
31717;BME280;18301;51.076;17.046;2024-01-30T09:20:27;101737.72;;;7.33;63.50
31717;BME280;18301;51.076;17.046;2024-01-30T09:25:30;101732.38;;;7.77;61.17
31717;BME280;18301;51.076;17.046;2024-01-30T09:30:32;101729.22;;;7.88;62.80
31717;BME280;18301;51.076;17.046;2024-01-30T09:35:35;101732.88;;;7.65;58.57
31717;BME280;18301;51.076;17.046;2024-01-30T09:40:37;101725.06;;;7.58;59.11
31717;BME280;18301;51.076;17.046;2024-01-30T09:45:41;101728.47;;;7.84;60.35
31717;BME280;18301;51.076;17.046;2024-01-30T09:50:43;101723.03;;;8.07;59.09
31717;BME280;18301;51.076;17.046;2024-01-30T09:55:45;101722.44;;;8.21;58.03
31717;BME280;18301;51.076;17.046;2024-01-30T10:00:47;101724.31;;;8.41;56.93
31717;BME280;18301;51.076;17.046;2024-01-30T10:05:51;101712.59;;;8.63;56.82
31717;BME280;18301;51.076;17.046;2024-01-30T10:10:55;101698.31;;;8.81;57.79
31717;BME280;18301;51.076;17.046;2024-01-30T10:15:58;101690.38;;;8.78;55.56
31717;BME280;18301;51.076;17.046;2024-01-30T10:21:00;101692.94;;;8.61;56.89
31717;BME280;18301;51.076;17.046;2024-01-30T10:26:03;101686.31;;;8.88;55.75
31717;BME280;18301;51.076;17.046;2024-01-30T10:31:05;101675.34;;;9.12;55.38
31717;BME280;18301;51.076;17.046;2024-01-30T10:36:08;101676.06;;;9.34;54.24
31717;BME280;18301;51.076;17.046;2024-01-30T10:41:11;101683.69;;;9.43;52.94
31717;BME280;18301;51.076;17.046;2024-01-30T10:46:18;101671.19;;;9.42;52.85
31717;BME280;18301;51.076;17.046;2024-01-30T10:51:26;101670.28;;;9.61;53.68
31717;BME280;18301;51.076;17.046;2024-01-30T10:56:29;101658.72;;;9.76;53.24
31717;BME280;18301;51.076;17.046;2024-01-30T11:01:31;101648.41;;;9.84;53.28
31717;BME280;18301;51.076;17.046;2024-01-30T11:06:41;101651.88;;;9.52;52.28
31717;BME280;18301;51.076;17.046;2024-01-30T11:11:49;101644.56;;;9.54;53.29
31717;BME280;18301;51.076;17.046;2024-01-30T11:16:51;101642.56;;;9.76;51.88
31717;BME280;18301;51.076;17.046;2024-01-30T11:21:53;101635.88;;;9.83;52.36
31717;BME280;18301;51.076;17.046;2024-01-30T11:26:56;101633.34;;;9.80;51.87
31717;BME280;18301;51.076;17.046;2024-01-30T11:32:02;101632.16;;;9.86;52.23
31717;BME280;18301;51.076;17.046;2024-01-30T11:37:09;101628.28;;;10.09;51.71
31717;BME280;18301;51.076;17.046;2024-01-30T11:42:13;101624.31;;;10.16;52.17
31717;BME280;18301;51.076;17.046;2024-01-30T11:47:16;101611.16;;;10.27;50.37
31717;BME280;18301;51.076;17.046;2024-01-30T11:52:18;101603.28;;;10.23;51.21
31717;BME280;18301;51.076;17.046;2024-01-30T11:57:19;101590.44;;;10.28;50.08
31717;BME280;18301;51.076;17.046;2024-01-30T12:02:21;101590.38;;;10.29;50.05
31717;BME280;18301;51.076;17.046;2024-01-30T12:07:23;101585.63;;;10.50;51.53
31717;BME280;18301;51.076;17.046;2024-01-30T12:12:26;101582.84;;;10.52;49.83
31717;BME280;18301;51.076;17.046;2024-01-30T12:17:30;101579.56;;;11.26;48.96
31717;BME280;18301;51.076;17.046;2024-01-30T12:22:52;101578.59;;;11.43;47.43
31717;BME280;18301;51.076;17.046;2024-01-30T12:27:56;101563.69;;;11.36;48.98
31717;BME280;18301;51.076;17.046;2024-01-30T12:32:59;101567.72;;;11.28;49.47
31717;BME280;18301;51.076;17.046;2024-01-30T12:38:03;101552.31;;;11.15;48.49
31717;BME280;18301;51.076;17.046;2024-01-30T12:43:05;101552.66;;;11.09;48.41
31717;BME280;18301;51.076;17.046;2024-01-30T12:48:07;101552.91;;;11.20;47.97
31717;BME280;18301;51.076;17.046;2024-01-30T12:53:09;101543.66;;;11.08;49.44
31717;BME280;18301;51.076;17.046;2024-01-30T12:58:11;101539.16;;;10.61;49.75
31717;BME280;18301;51.076;17.046;2024-01-30T13:03:13;101550.69;;;10.31;49.23
31717;BME280;18301;51.076;17.046;2024-01-30T13:08:14;101547.31;;;9.93;50.16
31717;BME280;18301;51.076;17.046;2024-01-30T13:13:16;101544.84;;;9.54;51.05
31717;BME280;18301;51.076;17.046;2024-01-30T13:18:21;101540.34;;;9.37;51.92
31717;BME280;18301;51.076;17.046;2024-01-30T13:23:23;101532.97;;;9.40;53.07
31717;BME280;18301;51.076;17.046;2024-01-30T13:28:24;101534.06;;;9.36;53.99
31717;BME280;18301;51.076;17.046;2024-01-30T13:33:27;101527.41;;;9.43;53.64
31717;BME280;18301;51.076;17.046;2024-01-30T13:38:29;101528.19;;;9.28;54.35
31717;BME280;18301;51.076;17.046;2024-01-30T13:43:31;101525.47;;;9.11;54.07
31717;BME280;18301;51.076;17.046;2024-01-30T13:48:32;101529.94;;;9.29;54.12
31717;BME280;18301;51.076;17.046;2024-01-30T13:53:34;101518.34;;;9.10;54.24
31717;BME280;18301;51.076;17.046;2024-01-30T13:58:36;101523.97;;;9.22;54.71
31717;BME280;18301;51.076;17.046;2024-01-30T14:03:38;101515.34;;;9.16;54.83
31717;BME280;18301;51.076;17.046;2024-01-30T14:08:39;101524.75;;;9.07;55.00
31717;BME280;18301;51.076;17.046;2024-01-30T14:13:45;101509.84;;;9.00;55.66
31717;BME280;18301;51.076;17.046;2024-01-30T14:18:47;101519.41;;;8.88;56.32
31717;BME280;18301;51.076;17.046;2024-01-30T14:23:48;101512.88;;;8.75;56.26
31717;BME280;18301;51.076;17.046;2024-01-30T14:28:50;101513.03;;;8.72;56.78
31717;BME280;18301;51.076;17.046;2024-01-30T14:33:52;101514.50;;;8.60;56.89
31717;BME280;18301;51.076;17.046;2024-01-30T14:38:54;101501.03;;;8.60;56.91
31717;BME280;18301;51.076;17.046;2024-01-30T14:43:56;101513.03;;;8.53;57.35
31717;BME280;18301;51.076;17.046;2024-01-30T14:48:58;101505.59;;;8.39;58.58
31717;BME280;18301;51.076;17.046;2024-01-30T14:54:01;101507.34;;;8.40;58.79
31717;BME280;18301;51.076;17.046;2024-01-30T14:59:02;101511.09;;;8.36;58.56
31717;BME280;18301;51.076;17.046;2024-01-30T15:04:04;101508.94;;;8.25;59.01
31717;BME280;18301;51.076;17.046;2024-01-30T15:09:06;101503.59;;;8.24;59.66
31717;BME280;18301;51.076;17.046;2024-01-30T15:14:08;101501.34;;;8.15;60.29
31717;BME280;18301;51.076;17.046;2024-01-30T15:19:09;101515.88;;;8.11;60.23
31717;BME280;18301;51.076;17.046;2024-01-30T15:24:11;101509.16;;;8.00;60.48
31717;BME280;18301;51.076;17.046;2024-01-30T15:29:16;101508.09;;;7.84;60.82
31717;BME280;18301;51.076;17.046;2024-01-30T15:34:18;101512.03;;;7.77;61.33
31717;BME280;18301;51.076;17.046;2024-01-30T15:39:20;101509.66;;;7.69;61.54
31717;BME280;18301;51.076;17.046;2024-01-30T15:44:21;101516.34;;;7.60;61.63
31717;BME280;18301;51.076;17.046;2024-01-30T15:49:23;101519.69;;;7.45;62.34
31717;BME280;18301;51.076;17.046;2024-01-30T15:54:25;101524.03;;;7.05;64.29
31717;BME280;18301;51.076;17.046;2024-01-30T15:59:26;101522.53;;;6.98;64.03
31717;BME280;18301;51.076;17.046;2024-01-30T16:04:29;101525.66;;;6.87;64.19
31717;BME280;18301;51.076;17.046;2024-01-30T16:09:31;101525.28;;;6.75;64.57
31717;BME280;18301;51.076;17.046;2024-01-30T16:14:33;101528.00;;;6.73;64.54
31717;BME280;18301;51.076;17.046;2024-01-30T16:19:37;101519.38;;;6.65;65.45
31717;BME280;18301;51.076;17.046;2024-01-30T16:24:39;101536.63;;;6.59;64.62
31717;BME280;18301;51.076;17.046;2024-01-30T16:29:41;101536.84;;;6.53;65.11
31717;BME280;18301;51.076;17.046;2024-01-30T16:34:43;101536.16;;;6.48;65.91
31717;BME280;18301;51.076;17.046;2024-01-30T16:39:46;101535.78;;;6.34;66.70
31717;BME280;18301;51.076;17.046;2024-01-30T16:44:47;101544.78;;;6.33;65.80
31717;BME280;18301;51.076;17.046;2024-01-30T16:49:49;101551.75;;;6.37;66.06
31717;BME280;18301;51.076;17.046;2024-01-30T16:54:52;101552.13;;;6.28;66.67
31717;BME280;18301;51.076;17.046;2024-01-30T16:59:54;101550.81;;;6.14;66.95
31717;BME280;18301;51.076;17.046;2024-01-30T17:04:56;101550.25;;;6.30;66.14
31717;BME280;18301;51.076;17.046;2024-01-30T17:10:11;101556.84;;;6.21;66.63
31717;BME280;18301;51.076;17.046;2024-01-30T17:15:14;101554.91;;;6.25;66.18
31717;BME280;18301;51.076;17.046;2024-01-30T17:20:16;101563.41;;;6.12;66.55
31717;BME280;18301;51.076;17.046;2024-01-30T17:25:18;101561.66;;;6.11;66.81
31717;BME280;18301;51.076;17.046;2024-01-30T17:30:21;101562.00;;;6.02;67.60
31717;BME280;18301;51.076;17.046;2024-01-30T17:35:23;101558.50;;;6.00;67.28
31717;BME280;18301;51.076;17.046;2024-01-30T17:40:25;101554.94;;;5.99;67.47
31717;BME280;18301;51.076;17.046;2024-01-30T17:45:26;101544.41;;;5.95;67.72
31717;BME280;18301;51.076;17.046;2024-01-30T17:50:28;101546.66;;;5.81;68.31
31717;BME280;18301;51.076;17.046;2024-01-30T17:55:30;101552.78;;;5.59;68.63
31717;BME280;18301;51.076;17.046;2024-01-30T18:00:32;101553.09;;;5.50;69.14
31717;BME280;18301;51.076;17.046;2024-01-30T18:05:34;101554.91;;;5.49;68.93
31717;BME280;18301;51.076;17.046;2024-01-30T18:10:36;101544.59;;;5.37;68.99
31717;BME280;18301;51.076;17.046;2024-01-30T18:15:38;101540.22;;;5.35;69.32
31717;BME280;18301;51.076;17.046;2024-01-30T18:20:40;101531.19;;;5.12;70.69
31717;BME280;18301;51.076;17.046;2024-01-30T18:25:41;101539.41;;;5.06;70.75
31717;BME280;18301;51.076;17.046;2024-01-30T18:30:43;101541.81;;;4.87;71.68
31717;BME280;18301;51.076;17.046;2024-01-30T18:35:45;101542.69;;;4.88;71.12
31717;BME280;18301;51.076;17.046;2024-01-30T18:40:47;101546.88;;;4.95;70.40
31717;BME280;18301;51.076;17.046;2024-01-30T18:45:52;101562.34;;;4.87;70.88
31717;BME280;18301;51.076;17.046;2024-01-30T18:50:57;101566.47;;;4.97;70.09
31717;BME280;18301;51.076;17.046;2024-01-30T18:56:01;101549.06;;;5.10;70.41
31717;BME280;18301;51.076;17.046;2024-01-30T19:01:04;101550.75;;;5.14;69.98
31717;BME280;18301;51.076;17.046;2024-01-30T19:06:05;101552.38;;;5.18;70.18
31717;BME280;18301;51.076;17.046;2024-01-30T19:11:17;101527.25;;;5.22;70.01
31717;BME280;18301;51.076;17.046;2024-01-30T19:16:19;101538.72;;;5.26;69.69
31717;BME280;18301;51.076;17.046;2024-01-30T19:21:22;101538.06;;;5.19;69.70
31717;BME280;18301;51.076;17.046;2024-01-30T19:26:23;101545.19;;;5.20;69.97
31717;BME280;18301;51.076;17.046;2024-01-30T19:31:25;101534.69;;;5.14;70.21
31717;BME280;18301;51.076;17.046;2024-01-30T19:36:27;101544.56;;;5.12;70.18
31717;BME280;18301;51.076;17.046;2024-01-30T19:41:28;101544.59;;;5.11;70.21
31717;BME280;18301;51.076;17.046;2024-01-30T19:46:30;101552.28;;;5.21;69.79
31717;BME280;18301;51.076;17.046;2024-01-30T19:51:32;101542.28;;;5.26;69.77
31717;BME280;18301;51.076;17.046;2024-01-30T19:56:33;101551.34;;;5.22;69.95
31717;BME280;18301;51.076;17.046;2024-01-30T20:01:35;101545.09;;;5.23;70.20
31717;BME280;18301;51.076;17.046;2024-01-30T20:06:37;101547.03;;;5.18;69.78
31717;BME280;18301;51.076;17.046;2024-01-30T20:11:40;101547.13;;;5.15;69.88
31717;BME280;18301;51.076;17.046;2024-01-30T20:16:42;101553.72;;;5.05;70.16
31717;BME280;18301;51.076;17.046;2024-01-30T20:21:44;101557.16;;;5.08;71.04
31717;BME280;18301;51.076;17.046;2024-01-30T20:26:48;101550.63;;;5.17;70.92
31717;BME280;18301;51.076;17.046;2024-01-30T20:31:51;101550.56;;;5.19;71.20
31717;BME280;18301;51.076;17.046;2024-01-30T20:36:52;101547.06;;;5.17;70.98
31717;BME280;18301;51.076;17.046;2024-01-30T20:41:54;101546.94;;;5.21;71.12
31717;BME280;18301;51.076;17.046;2024-01-30T20:46:57;101552.00;;;5.29;70.92
31717;BME280;18301;51.076;17.046;2024-01-30T20:51:59;101550.31;;;5.26;71.40
31717;BME280;18301;51.076;17.046;2024-01-30T20:57:01;101550.31;;;5.26;71.09
31717;BME280;18301;51.076;17.046;2024-01-30T21:02:03;101547.50;;;5.31;70.68
31717;BME280;18301;51.076;17.046;2024-01-30T21:07:04;101542.28;;;5.26;70.92
31717;BME280;18301;51.076;17.046;2024-01-30T21:12:07;101544.47;;;5.15;71.14
31717;BME280;18301;51.076;17.046;2024-01-30T21:17:08;101557.19;;;5.07;71.77
31717;BME280;18301;51.076;17.046;2024-01-30T21:22:10;101559.25;;;4.99;71.80
31717;BME280;18301;51.076;17.046;2024-01-30T21:27:12;101556.88;;;4.90;71.65
31717;BME280;18301;51.076;17.046;2024-01-30T21:32:13;101563.31;;;4.84;72.59
31717;BME280;18301;51.076;17.046;2024-01-30T21:37:16;101563.31;;;4.84;72.61
31717;BME280;18301;51.076;17.046;2024-01-30T21:42:18;101557.19;;;4.80;73.11
31717;BME280;18301;51.076;17.046;2024-01-30T21:47:21;101549.19;;;4.79;73.04
31717;BME280;18301;51.076;17.046;2024-01-30T21:52:23;101548.41;;;4.75;73.11
31717;BME280;18301;51.076;17.046;2024-01-30T21:57:25;101552.97;;;4.72;74.08
31717;BME280;18301;51.076;17.046;2024-01-30T22:02:26;101561.22;;;4.64;73.55
31717;BME280;18301;51.076;17.046;2024-01-30T22:07:28;101562.09;;;4.65;73.87
31717;BME280;18301;51.076;17.046;2024-01-30T22:12:30;101569.34;;;4.61;74.68
31717;BME280;18301;51.076;17.046;2024-01-30T22:17:32;101562.28;;;4.58;74.29
31717;BME280;18301;51.076;17.046;2024-01-30T22:22:34;101566.75;;;4.58;74.93
31717;BME280;18301;51.076;17.046;2024-01-30T22:27:35;101565.03;;;4.55;74.98
31717;BME280;18301;51.076;17.046;2024-01-30T22:32:38;101569.72;;;4.49;74.88
31717;BME280;18301;51.076;17.046;2024-01-30T22:37:40;101562.75;;;4.43;74.92
31717;BME280;18301;51.076;17.046;2024-01-30T22:42:41;101572.38;;;4.49;75.15
31717;BME280;18301;51.076;17.046;2024-01-30T22:47:43;101564.19;;;4.55;74.82
31717;BME280;18301;51.076;17.046;2024-01-30T22:52:46;101569.72;;;4.49;75.47
31717;BME280;18301;51.076;17.046;2024-01-30T22:57:47;101570.28;;;4.60;75.28
31717;BME280;18301;51.076;17.046;2024-01-30T23:03:20;101570.78;;;4.73;75.20
31717;BME280;18301;51.076;17.046;2024-01-30T23:08:22;101574.41;;;4.98;74.03
31717;BME280;18301;51.076;17.046;2024-01-30T23:13:24;101570.38;;;5.13;73.65
31717;BME280;18301;51.076;17.046;2024-01-30T23:18:25;101569.94;;;5.27;73.62
31717;BME280;18301;51.076;17.046;2024-01-30T23:23:27;101571.50;;;5.32;73.37
31717;BME280;18301;51.076;17.046;2024-01-30T23:28:29;101581.91;;;5.42;73.10
31717;BME280;18301;51.076;17.046;2024-01-30T23:33:30;101593.63;;;5.39;73.24
31717;BME280;18301;51.076;17.046;2024-01-30T23:38:32;101584.09;;;5.30;73.00
31717;BME280;18301;51.076;17.046;2024-01-30T23:43:34;101587.91;;;5.23;73.25
31717;BME280;18301;51.076;17.046;2024-01-30T23:48:35;101582.75;;;5.17;73.58
31717;BME280;18301;51.076;17.046;2024-01-30T23:53:37;101586.63;;;5.07;73.75
31717;BME280;18301;51.076;17.046;2024-01-30T23:58:39;101586.25;;;4.91;74.30
